Time;durP1;ratioP1;P1;durP2;ratioP2;P2;SDS_P1;SDS_P2;PMS_P1;PMS_P2;Temp;Humidity;BMP_temperature;BMP_pressure;BME280_temperature;BME280_humidity;BME280_pressure;Samples;Min_cycle;Max_cycle;Signal;HPM_P1;HPM_P2
2022/12/01 00:02:03;;;;;;;;;;;;;;;6.23;92.62;102666.97;5084565;28;19984;-58
2022/12/01 00:04:28;;;;;;;;;;;;;;;6.24;92.45;102671.31;5084058;28;20501;-56
2022/12/01 00:06:53;;;;;;;;;;;;;;;6.25;92.51;102667.72;5079806;28;20007;-58
2022/12/01 00:12:02;;;;;;;;;;;;;;;6.23;92.62;102664.34;5084103;28;19922;-56
2022/12/01 00:14:27;;;;;;;;;;;;;;;6.22;92.39;102663.50;5086638;28;20392;-59
2022/12/01 00:16:53;;;;;;;;;;;;;;;6.24;92.83;102666.03;5084728;28;19920;-59
2022/12/01 00:19:18;;;;;;;;;;;;;;;6.24;92.61;102666.03;5084711;28;20395;-61
2022/12/01 00:21:44;;;;;;;;;;;;;;;6.25;92.82;102667.72;5083196;28;19920;-61
2022/12/01 00:24:10;;;;;;;;;;;;;;;6.26;92.63;102671.22;5084547;28;19982;-58
2022/12/01 00:26:36;;;;;;;;;;;;;;;6.25;92.60;102665.09;5085755;28;19920;-57
2022/12/01 00:29:01;;;;;;;;;;;;;;;6.24;92.73;102665.19;5090247;28;19923;-60
2022/12/01 00:31:26;;;;;;;;;;;;;;;6.24;92.51;102667.81;5081484;28;19922;-56
2022/12/01 00:33:52;;;;;;;;;;;;;;;6.24;92.81;102673.94;5085656;28;19916;-56
2022/12/01 00:36:17;;;;;;;;;;;;;;;6.24;92.61;102668.66;5082545;28;19920;-59
2022/12/01 00:38:42;;;;;;;;;;;;;;;6.24;92.87;102667.81;5082354;28;19920;-56
2022/12/01 00:41:07;;;;;;;;;;;;;;;6.22;92.70;102662.66;5081103;28;19932;-57
2022/12/01 00:43:33;;;;;;;;;;;;;;;6.21;92.67;102661.81;5086036;28;19923;-59
2022/12/01 00:45:58;;;;;;;;;;;;;;;6.19;92.64;102661.06;5084246;28;19916;-59
2022/12/01 00:48:23;;;;;;;;;;;;;;;6.19;92.76;102665.47;5085666;28;20521;-57
2022/12/01 00:50:50;;;;;;;;;;;;;;;6.16;92.75;102663.88;5083036;28;19994;-61
2022/12/01 00:53:15;;;;;;;;;;;;;;;6.15;92.75;102671.91;5086501;28;19927;-56
2022/12/01 00:55:40;;;;;;;;;;;;;;;6.10;92.71;102671.34;5075752;28;19999;-59
2022/12/01 00:58:06;;;;;;;;;;;;;;;6.08;92.75;102670.59;5085286;28;20395;-58
2022/12/01 01:00:31;;;;;;;;;;;;;;;6.06;92.71;102665.38;5080489;28;19927;-57
2022/12/01 01:02:56;;;;;;;;;;;;;;;6.07;92.60;102668.88;5081707;28;19952;-57
2022/12/01 01:05:22;;;;;;;;;;;;;;;6.05;92.89;102668.13;5082121;28;20334;-57
2022/12/01 01:07:47;;;;;;;;;;;;;;;6.05;92.67;102666.34;5078456;28;19917;-58
2022/12/01 01:10:12;;;;;;;;;;;;;;;6.06;93.03;102675.09;5081206;28;20407;-57
2022/12/01 01:12:37;;;;;;;;;;;;;;;6.05;92.88;102671.59;5081381;28;19963;-60
2022/12/01 01:15:04;;;;;;;;;;;;;;;6.05;92.81;102670.75;5087324;28;19967;-60
2022/12/01 01:17:29;;;;;;;;;;;;;;;6.04;93.00;102675.19;5088070;28;20362;-59
2022/12/01 01:19:54;;;;;;;;;;;;;;;6.05;92.91;102678.69;5084623;28;20035;-59
2022/12/01 01:22:19;;;;;;;;;;;;;;;6.06;93.03;102681.22;5086525;28;19920;-59
2022/12/01 01:24:44;;;;;;;;;;;;;;;6.06;92.96;102681.22;5085517;28;20418;-57
2022/12/01 01:27:09;;;;;;;;;;;;;;;6.06;92.75;102683.84;5088919;28;19973;-57
2022/12/01 01:29:35;;;;;;;;;;;;;;;6.08;92.87;102686.44;5086937;28;19938;-58
2022/12/01 01:32:00;;;;;;;;;;;;;;;6.09;92.92;102693.41;5085245;28;19916;-59
2022/12/01 01:34:25;;;;;;;;;;;;;;;6.08;92.85;102692.53;5087424;28;19919;-60
2022/12/01 01:36:50;;;;;;;;;;;;;;;6.04;92.98;102687.53;5084473;28;19920;-58
2022/12/01 01:39:16;;;;;;;;;;;;;;;6.10;92.79;102695.09;5086139;28;19920;-60
2022/12/01 01:41:41;;;;;;;;;;;;;;;6.08;93.07;102696.97;5088644;28;19938;-59
2022/12/01 01:44:25;;;;;;;;;;;;;;;6.09;93.12;102696.03;5088411;28;19922;-56
2022/12/01 01:46:50;;;;;;;;;;;;;;;6.09;93.19;102694.25;5087865;28;19969;-58
2022/12/01 01:49:15;;;;;;;;;;;;;;;6.09;92.97;102691.59;5084192;28;21124;-57
2022/12/01 01:51:43;;;;;;;;;;;;;;;6.09;93.04;102696.88;5083793;28;19916;-58
2022/12/01 01:54:14;;;;;;;;;;;;;;;6.10;93.14;102693.28;5080255;28;21227;-58
2022/12/01 01:56:40;;;;;;;;;;;;;;;6.10;93.26;102695.09;5081526;28;19923;-59
2022/12/01 01:59:05;;;;;;;;;;;;;;;6.10;93.23;102695.09;5085325;28;20644;-58
2022/12/01 02:01:31;;;;;;;;;;;;;;;6.09;93.14;102696.88;5087024;28;19919;-59
2022/12/01 02:03:56;;;;;;;;;;;;;;;6.09;92.93;102694.25;5088399;28;19920;-56
2022/12/01 02:06:23;;;;;;;;;;;;;;;6.10;92.94;102689.81;5089493;28;20625;-57
2022/12/01 02:08:48;;;;;;;;;;;;;;;6.09;93.28;102694.25;5088266;28;19943;-61
2022/12/01 02:11:35;;;;;;;;;;;;;;;6.10;92.91;102701.22;5086485;28;20283;-56
2022/12/01 02:14:07;;;;;;;;;;;;;;;6.10;92.87;102697.72;5088358;28;20372;-59
2022/12/01 02:16:51;;;;;;;;;;;;;;;6.09;93.13;102699.50;5089484;28;20535;-55
2022/12/01 02:19:32;;;;;;;;;;;;;;;6.09;92.96;102696.88;5086159;28;20315;-57
2022/12/01 02:22:20;;;;;;;;;;;;;;;6.09;93.21;102701.31;5087725;28;19969;-57
2022/12/01 02:24:51;;;;;;;;;;;;;;;6.11;93.30;102699.41;5084121;28;19973;-57
2022/12/01 02:27:31;;;;;;;;;;;;;;;6.12;93.02;102703.75;5084055;28;20011;-57
2022/12/01 02:30:03;;;;;;;;;;;;;;;6.14;93.14;102697.44;5087628;28;19927;-56
2022/12/01 02:32:28;;;;;;;;;;;;;;;6.15;93.12;102703.56;5084969;28;19916;-56
2022/12/01 02:35:09;;;;;;;;;;;;;;;6.15;93.31;102696.50;5080947;28;19916;-59
2022/12/01 02:37:45;;;;;;;;;;;;;;;6.15;93.25;102693.84;5085974;28;19923;-57
2022/12/01 02:40:10;;;;;;;;;;;;;;;6.15;93.40;102698.28;5080986;28;19928;-57
2022/12/01 02:42:52;;;;;;;;;;;;;;;6.15;93.05;102706.19;5087024;28;19916;-58
2022/12/01 02:45:21;;;;;;;;;;;;;;;6.15;93.21;102704.41;5084043;28;19935;-57
2022/12/01 02:47:47;;;;;;;;;;;;;;;6.15;92.99;102695.63;5086276;28;19916;-57
2022/12/01 02:50:12;;;;;;;;;;;;;;;6.14;93.36;102696.59;5085370;28;19916;-56
2022/12/01 02:52:38;;;;;;;;;;;;;;;6.14;93.45;102693.94;5082742;28;19920;-59
2022/12/01 02:55:04;;;;;;;;;;;;;;;6.14;93.59;102697.44;5084267;28;19924;-58
2022/12/01 02:57:29;;;;;;;;;;;;;;;6.14;93.45;102692.16;5083847;28;19923;-59
2022/12/01 02:59:55;;;;;;;;;;;;;;;6.15;93.32;102693.00;5085053;28;20534;-58
2022/12/01 03:02:30;;;;;;;;;;;;;;;6.16;93.49;102699.97;5082406;28;19920;-58
2022/12/01 03:05:16;;;;;;;;;;;;;;;6.16;93.48;102692.91;5082161;28;19926;-59
2022/12/01 03:07:52;;;;;;;;;;;;;;;6.15;93.45;102699.13;5072206;28;19920;-58
2022/12/01 03:10:41;;;;;;;;;;;;;;;6.15;93.29;102696.50;5084134;28;20561;-59
2022/12/01 03:13:15;;;;;;;;;;;;;;;6.16;93.55;102706.09;5078579;28;19923;-58
2022/12/01 03:15:40;;;;;;;;;;;;;;;6.15;93.40;102704.41;5082944;28;19916;-57
2022/12/01 03:18:20;;;;;;;;;;;;;;;6.16;93.34;102698.19;5086618;28;19920;-57
2022/12/01 03:20:49;;;;;;;;;;;;;;;6.16;93.46;102700.81;5084058;28;20002;-58
2022/12/01 03:23:17;;;;;;;;;;;;;;;6.15;93.57;102699.13;5084654;28;20057;-58
2022/12/01 03:25:45;;;;;;;;;;;;;;;6.14;93.59;102693.94;5087084;28;19922;-56
2022/12/01 03:28:12;;;;;;;;;;;;;;;6.13;93.50;102692.25;5086694;28;19938;-56
2022/12/01 03:30:38;;;;;;;;;;;;;;;6.13;93.23;102694.88;5086408;28;19916;-58
2022/12/01 03:33:07;;;;;;;;;;;;;;;6.12;93.59;102698.47;5093578;28;20505;-59
2022/12/01 03:35:37;;;;;;;;;;;;;;;6.13;93.32;102700.16;5085408;28;20433;-57
2022/12/01 03:38:05;;;;;;;;;;;;;;;6.11;93.41;102700.25;5086015;28;19997;-57
2022/12/01 03:40:31;;;;;;;;;;;;;;;6.12;93.62;102698.47;5082289;28;20010;-60
2022/12/01 03:42:58;;;;;;;;;;;;;;;6.11;93.51;102692.34;5084543;28;20006;-58
2022/12/01 03:45:35;;;;;;;;;;;;;;;6.11;93.51;102692.34;5081429;28;19969;-58
2022/12/01 03:48:01;;;;;;;;;;;;;;;6.11;93.44;102695.00;5086647;28;20002;-60
2022/12/01 03:50:50;;;;;;;;;;;;;;;6.12;93.45;102694.03;5083930;28;20007;-56
2022/12/01 03:53:19;;;;;;;;;;;;;;;6.14;93.65;102701.84;5086324;28;19924;-59
2022/12/01 03:55:46;;;;;;;;;;;;;;;6.13;93.70;102703.66;5083486;28;19953;-59
2022/12/01 03:58:23;;;;;;;;;;;;;;;6.14;93.64;102696.59;5083053;28;19919;-57
2022/12/01 04:00:52;;;;;;;;;;;;;;;6.15;93.51;102695.63;5073509;28;19921;-57
2022/12/01 04:03:18;;;;;;;;;;;;;;;6.14;93.52;102700.06;5083994;28;19916;-55
2022/12/01 04:05:43;;;;;;;;;;;;;;;6.15;93.53;102700.91;5082713;28;19986;-58
2022/12/01 04:08:08;;;;;;;;;;;;;;;6.13;93.82;102701.00;5085499;28;19978;-56
2022/12/01 04:10:34;;;;;;;;;;;;;;;6.13;93.79;102701.00;5085233;28;20307;-59
2022/12/01 04:12:59;;;;;;;;;;;;;;;6.12;93.75;102704.59;5087259;28;19916;-57
2022/12/01 04:15:25;;;;;;;;;;;;;;;6.13;93.56;102708.09;5081095;28;19916;-57
2022/12/01 04:17:50;;;;;;;;;;;;;;;6.13;93.54;102710.72;5081624;28;19961;-60
2022/12/01 04:20:16;;;;;;;;;;;;;;;6.13;93.77;102716.00;5078322;28;19982;-57
2022/12/01 04:22:41;;;;;;;;;;;;;;;6.13;93.65;102710.72;5081377;28;20497;-58
2022/12/01 04:25:07;;;;;;;;;;;;;;;6.12;93.68;102703.75;5085880;28;20387;-59
2022/12/01 04:27:32;;;;;;;;;;;;;;;6.12;93.52;102706.38;5084135;28;20379;-58
2022/12/01 04:29:58;;;;;;;;;;;;;;;6.12;93.81;102712.50;5082608;28;20387;-56
2022/12/01 04:32:23;;;;;;;;;;;;;;;6.13;93.63;102713.34;5082060;28;19920;-58
2022/12/01 04:34:48;;;;;;;;;;;;;;;6.13;93.67;102706.28;5085615;28;19924;-59
2022/12/01 04:37:13;;;;;;;;;;;;;;;6.14;93.92;102718.53;5078381;28;20357;-59
2022/12/01 04:39:40;;;;;;;;;;;;;;;6.15;93.80;102711.47;5076220;28;20331;-60
2022/12/01 04:42:06;;;;;;;;;;;;;;;6.16;93.88;102706.09;5085021;28;19927;-56
2022/12/01 04:44:31;;;;;;;;;;;;;;;6.15;93.85;102703.56;5080753;28;19916;-59
2022/12/01 04:46:56;;;;;;;;;;;;;;;6.14;93.77;102705.34;5083423;28;19986;-59
2022/12/01 04:49:22;;;;;;;;;;;;;;;6.12;93.46;102696.69;5087557;28;19920;-59
2022/12/01 04:51:47;;;;;;;;;;;;;;;6.12;93.86;102701.97;5088249;28;20298;-57
2022/12/01 04:54:13;;;;;;;;;;;;;;;6.12;94.01;102703.75;5087214;28;19916;-57
2022/12/01 04:56:39;;;;;;;;;;;;;;;6.10;93.66;102706.47;5086570;28;19924;-57
2022/12/01 04:59:04;;;;;;;;;;;;;;;6.10;93.69;102701.22;5090153;28;19959;-58
2022/12/01 05:01:29;;;;;;;;;;;;;;;6.10;93.89;102701.22;5084403;28;20015;-59
2022/12/01 05:03:54;;;;;;;;;;;;;;;6.10;93.92;102697.72;5086237;28;19923;-59
2022/12/01 05:06:21;;;;;;;;;;;;;;;6.09;93.88;102698.66;5085269;28;19920;-59
2022/12/01 05:08:47;;;;;;;;;;;;;;;6.08;93.51;102702.25;5088133;28;19919;-56
2022/12/01 05:11:13;;;;;;;;;;;;;;;6.08;94.14;102696.97;5088205;28;20307;-56
2022/12/01 05:13:39;;;;;;;;;;;;;;;6.06;93.61;102694.41;5085390;28;20379;-58
2022/12/01 05:16:09;;;;;;;;;;;;;;;6.06;93.86;102696.19;5088034;28;19916;-56
2022/12/01 05:18:34;;;;;;;;;;;;;;;6.04;93.96;102698.06;5092468;28;19916;-57
2022/12/01 05:20:59;;;;;;;;;;;;;;;6.04;94.02;102700.72;5086581;28;19931;-59
2022/12/01 05:23:25;;;;;;;;;;;;;;;6.02;93.74;102692.91;5086812;28;19920;-58
2022/12/01 05:25:51;;;;;;;;;;;;;;;6.02;93.88;102702.59;5086110;28;19916;-59
2022/12/01 05:28:16;;;;;;;;;;;;;;;6.02;93.79;102705.25;5088327;28;19923;-58
2022/12/01 05:30:42;;;;;;;;;;;;;;;6.02;94.15;102708.72;5086376;28;19924;-58
2022/12/01 05:33:07;;;;;;;;;;;;;;;6.00;94.24;102705.34;5088793;28;19916;-59
2022/12/01 05:35:32;;;;;;;;;;;;;;;6.02;94.25;102715.78;5085341;28;20304;-58
2022/12/01 05:37:57;;;;;;;;;;;;;;;6.01;94.08;102711.47;5086796;28;20402;-56
2022/12/01 05:40:23;;;;;;;;;;;;;;;5.98;94.20;102703.75;5085332;28;20011;-57
2022/12/01 05:42:48;;;;;;;;;;;;;;;5.99;94.17;102714.19;5085158;28;19920;-57
2022/12/01 05:45:13;;;;;;;;;;;;;;;5.98;94.42;102707.22;5081846;28;20011;-57
2022/12/01 05:47:38;;;;;;;;;;;;;;;5.98;94.33;102712.50;5093099;28;19920;-58
2022/12/01 05:50:04;;;;;;;;;;;;;;;5.97;94.48;102712.59;5083404;28;19916;-57
2022/12/01 05:52:29;;;;;;;;;;;;;;;5.96;94.20;102709.13;5085470;28;20011;-59
2022/12/01 05:54:54;;;;;;;;;;;;;;;5.96;94.33;102713.53;5083210;28;19923;-59
2022/12/01 05:57:19;;;;;;;;;;;;;;;5.96;94.38;102718.81;5082620;28;20007;-57
2022/12/01 05:59:44;;;;;;;;;;;;;;;5.96;94.41;102718.81;5083627;28;19927;-56
2022/12/01 06:02:10;;;;;;;;;;;;;;;5.94;94.27;102715.44;5087385;28;20003;-59
2022/12/01 06:04:35;;;;;;;;;;;;;;;5.93;94.42;102716.38;5088595;28;19916;-59
2022/12/01 06:07:00;;;;;;;;;;;;;;;5.93;94.33;102719.84;5086670;28;19912;-57
2022/12/01 06:09:25;;;;;;;;;;;;;;;5.93;94.61;102724.28;5081288;28;19923;-58
2022/12/01 06:11:50;;;;;;;;;;;;;;;5.92;94.29;102722.59;5082245;28;19959;-56
2022/12/01 06:14:15;;;;;;;;;;;;;;;5.91;94.49;102721.75;5090181;28;19916;-56
2022/12/01 06:16:41;;;;;;;;;;;;;;;5.89;94.52;102719.19;5082412;28;19912;-55
2022/12/01 06:19:06;;;;;;;;;;;;;;;5.89;94.58;102726.22;5082820;28;19918;-61
2022/12/01 06:21:31;;;;;;;;;;;;;;;5.87;94.30;102721.06;5086421;28;19920;-58
2022/12/01 06:23:56;;;;;;;;;;;;;;;5.88;94.31;102728.00;5085242;28;19917;-55
2022/12/01 06:26:21;;;;;;;;;;;;;;;5.88;94.37;102722.75;5089212;28;20010;-58
2022/12/01 06:28:46;;;;;;;;;;;;;;;5.87;94.21;102723.69;5088956;28;19912;-56
2022/12/01 06:31:12;;;;;;;;;;;;;;;5.86;94.20;102722.00;5084758;28;20442;-58
2022/12/01 06:33:37;;;;;;;;;;;;;;;5.86;94.62;102721.16;5085395;28;19920;-57
2022/12/01 06:36:03;;;;;;;;;;;;;;;5.86;94.44;102729.06;5087582;28;20611;-59
2022/12/01 06:38:30;;;;;;;;;;;;;;;5.86;94.45;102723.78;5083235;28;20022;-56
2022/12/01 06:40:55;;;;;;;;;;;;;;;5.86;94.46;102724.63;5087138;28;20006;-57
2022/12/01 06:43:20;;;;;;;;;;;;;;;5.87;94.28;102736.03;5085640;28;20007;-56
2022/12/01 06:45:45;;;;;;;;;;;;;;;5.86;94.39;102727.25;5081855;28;20437;-56
2022/12/01 06:48:11;;;;;;;;;;;;;;;5.86;94.68;102729.91;5084881;28;19943;-56
2022/12/01 06:50:36;;;;;;;;;;;;;;;5.88;94.42;102740.34;5089445;28;19934;-56
2022/12/01 06:53:01;;;;;;;;;;;;;;;5.89;94.62;102739.41;5089393;28;20408;-57
2022/12/01 06:55:27;;;;;;;;;;;;;;;5.90;94.65;102735.88;5086012;28;19916;-58
2022/12/01 06:57:52;;;;;;;;;;;;;;;5.89;94.54;102740.28;5083909;28;19923;-56
2022/12/01 07:00:17;;;;;;;;;;;;;;;5.90;94.56;102741.13;5080133;28;20558;-57
2022/12/01 07:02:42;;;;;;;;;;;;;;;5.91;94.52;102748.09;5083389;28;19961;-59
2022/12/01 07:05:08;;;;;;;;;;;;;;;5.92;94.32;102749.81;5079064;28;20693;-56
2022/12/01 07:07:36;;;;;;;;;;;;;;;5.94;94.66;102752.34;5083391;28;19916;-61
2022/12/01 07:10:02;;;;;;;;;;;;;;;5.94;94.74;102758.47;5077636;28;20011;-59
2022/12/01 07:12:30;;;;;;;;;;;;;;;5.94;94.50;102758.47;5084272;28;19999;-58
2022/12/01 07:14:56;;;;;;;;;;;;;;;5.96;94.37;102758.38;5079380;28;19970;-57
2022/12/01 07:17:22;;;;;;;;;;;;;;;5.96;94.46;102758.38;5082563;28;19916;-59
2022/12/01 07:19:47;;;;;;;;;;;;;;;5.98;94.40;102764.41;5080883;28;19924;-60
2022/12/01 07:22:12;;;;;;;;;;;;;;;5.99;94.47;102766.09;5088866;28;19919;-59
2022/12/01 07:24:37;;;;;;;;;;;;;;;5.99;94.61;102766.94;5085071;28;20372;-59
2022/12/01 07:27:02;;;;;;;;;;;;;;;6.01;94.35;102761.56;5085034;28;19934;-58
2022/12/01 07:29:27;;;;;;;;;;;;;;;6.00;94.35;102757.25;5079823;28;19969;-57
2022/12/01 07:31:53;;;;;;;;;;;;;;;6.01;94.18;102765.06;5083224;28;19916;-58
2022/12/01 07:34:18;;;;;;;;;;;;;;;6.01;94.28;102769.47;5088341;28;19974;-57
2022/12/01 07:36:43;;;;;;;;;;;;;;;6.02;94.63;102776.44;5088618;28;20427;-61
2022/12/01 07:39:08;;;;;;;;;;;;;;;6.01;94.24;102767.69;5083388;28;19930;-56
2022/12/01 07:41:34;;;;;;;;;;;;;;;6.03;94.53;102764.97;5080486;28;19932;-57
2022/12/01 07:43:59;;;;;;;;;;;;;;;6.03;94.44;102770.22;5082292;28;19945;-60
2022/12/01 07:46:25;;;;;;;;;;;;;;;6.03;94.56;102775.50;5086905;28;20296;-57
2022/12/01 07:48:51;;;;;;;;;;;;;;;6.02;94.51;102781.72;5081812;28;20051;-57
2022/12/01 07:51:17;;;;;;;;;;;;;;;6.02;94.44;102776.44;5089705;28;20379;-56
2022/12/01 07:53:43;;;;;;;;;;;;;;;6.02;94.24;102776.44;5084242;28;19927;-59
2022/12/01 07:56:08;;;;;;;;;;;;;;;6.01;94.19;102788.78;5091185;28;19982;-59
2022/12/01 07:58:33;;;;;;;;;;;;;;;6.02;94.21;102784.34;5084783;28;20360;-56
2022/12/01 08:01:04;;;;;;;;;;;;;;;6.03;94.46;102780.78;5086370;28;19927;-55
2022/12/01 08:03:29;;;;;;;;;;;;;;;6.05;94.37;102786.81;5080790;28;19924;-59
2022/12/01 08:05:55;;;;;;;;;;;;;;;6.05;94.56;102789.44;5081447;28;19919;-56
2022/12/01 08:08:20;;;;;;;;;;;;;;;6.05;94.23;102795.56;5086199;28;19920;-57
2022/12/01 08:10:46;;;;;;;;;;;;;;;6.04;94.18;102788.59;5082957;28;19916;-58
2022/12/01 08:13:11;;;;;;;;;;;;;;;6.04;94.45;102788.59;5087846;28;19995;-54
2022/12/01 08:15:36;;;;;;;;;;;;;;;6.03;94.36;102792.19;5083655;28;19913;-58
2022/12/01 08:18:01;;;;;;;;;;;;;;;6.03;94.22;102789.53;5087345;28;19962;-54
2022/12/01 08:20:26;;;;;;;;;;;;;;;6.00;94.31;102797.63;5079495;28;19928;-59
2022/12/01 08:22:51;;;;;;;;;;;;;;;5.98;94.28;102791.63;5081319;28;19970;-56
2022/12/01 08:25:17;;;;;;;;;;;;;;;5.94;94.18;102795.38;5086568;28;19920;-61
2022/12/01 08:27:42;;;;;;;;;;;;;;;5.93;94.14;102798.13;5085257;28;20447;-57
2022/12/01 08:30:07;;;;;;;;;;;;;;;5.90;93.98;102800.00;5087067;28;19912;-58
2022/12/01 08:32:32;;;;;;;;;;;;;;;5.90;94.12;102799.16;5088700;28;20557;-57
2022/12/01 08:34:58;;;;;;;;;;;;;;;5.90;93.86;102802.63;5088383;28;19923;-56
2022/12/01 08:37:23;;;;;;;;;;;;;;;5.92;93.97;102806.97;5087497;28;19962;-56
2022/12/01 08:39:48;;;;;;;;;;;;;;;5.92;94.19;102804.31;5080453;28;20327;-59
2022/12/01 08:42:14;;;;;;;;;;;;;;;5.94;94.22;102802.44;5089023;28;20003;-56
2022/12/01 08:44:39;;;;;;;;;;;;;;;5.95;94.16;102801.50;5094687;28;19938;-56
2022/12/01 08:47:04;;;;;;;;;;;;;;;5.98;94.11;102818.00;5087509;28;19947;-56
2022/12/01 08:49:29;;;;;;;;;;;;;;;6.00;94.01;102809.97;5086219;28;19935;-57
2022/12/01 08:51:55;;;;;;;;;;;;;;;6.04;94.25;102806.22;5084050;28;19961;-55
2022/12/01 08:54:20;;;;;;;;;;;;;;;6.06;94.33;102804.31;5086511;28;19930;-58
2022/12/01 08:56:45;;;;;;;;;;;;;;;6.08;94.26;102808.59;5083986;28;19930;-56
2022/12/01 08:59:11;;;;;;;;;;;;;;;6.10;94.38;102811.13;5089338;28;19916;-59
2022/12/01 09:01:51;;;;;;;;;;;;;;;6.08;94.11;102802.47;5083168;28;19939;-61
2022/12/01 09:04:17;;;;;;;;;;;;;;;6.12;94.25;102807.47;5085650;28;19990;-58
2022/12/01 09:06:43;;;;;;;;;;;;;;;6.14;94.26;102807.38;5078001;28;19912;-57
2022/12/01 09:09:09;;;;;;;;;;;;;;;6.15;93.85;102814.34;5084818;28;19912;-55
2022/12/01 09:11:34;;;;;;;;;;;;;;;6.14;94.13;102813.50;5085505;28;19912;-58
2022/12/01 09:14:00;;;;;;;;;;;;;;;6.16;93.90;102813.41;5088223;28;19912;-58
2022/12/01 09:16:25;;;;;;;;;;;;;;;6.17;94.13;102812.47;5087603;28;20299;-57
2022/12/01 09:18:50;;;;;;;;;;;;;;;6.19;93.72;102814.06;5088450;28;20036;-56
2022/12/01 09:21:16;;;;;;;;;;;;;;;6.22;94.14;102813.03;5084987;28;19920;-58
2022/12/01 09:23:42;;;;;;;;;;;;;;;6.26;93.99;102811.88;5078039;28;19913;-59
2022/12/01 09:26:08;;;;;;;;;;;;;;;6.28;93.98;102815.28;5081695;28;19991;-56
2022/12/01 09:28:33;;;;;;;;;;;;;;;6.32;93.73;102815.94;5082989;28;19923;-58
2022/12/01 09:31:06;;;;;;;;;;;;;;;6.34;94.12;102822.81;5085176;28;19916;-58
2022/12/01 09:33:32;;;;;;;;;;;;;;;6.36;93.99;102820.94;5081770;28;19920;-56
2022/12/01 09:35:58;;;;;;;;;;;;;;;6.35;93.82;102821.88;5087329;28;19920;-57
2022/12/01 09:38:23;;;;;;;;;;;;;;;6.37;93.72;102832.34;5089025;28;19916;-56
2022/12/01 09:40:49;;;;;;;;;;;;;;;6.40;93.98;102824.25;5081876;28;19989;-59
2022/12/01 09:43:19;;;;;;;;;;;;;;;6.42;93.98;102828.47;5083219;28;20527;-58
2022/12/01 09:45:47;;;;;;;;;;;;;;;6.46;93.77;102826.50;5078873;28;19964;-59
2022/12/01 09:48:22;;;;;;;;;;;;;;;6.50;94.02;102820.09;5078865;28;20007;-61
2022/12/01 09:50:47;;;;;;;;;;;;;;;6.52;93.93;102819.03;5078209;28;20006;-58
2022/12/01 09:53:16;;;;;;;;;;;;;;;6.56;93.89;102818.84;5083351;28;20011;-57
2022/12/01 09:55:42;;;;;;;;;;;;;;;6.60;94.00;102815.91;5086821;28;19931;-58
2022/12/01 09:58:13;;;;;;;;;;;;;;;6.66;93.65;102817.34;5085355;28;19938;-56
2022/12/01 10:00:41;;;;;;;;;;;;;;;6.72;93.86;102812.53;5082624;28;19927;-58
2022/12/01 10:03:09;;;;;;;;;;;;;;;6.77;94.02;102807.78;5082874;28;19948;-62
2022/12/01 10:05:42;;;;;;;;;;;;;;;6.85;94.03;102807.28;5078499;28;19966;-59
2022/12/01 10:08:11;;;;;;;;;;;;;;;6.90;93.64;102813.13;5081920;28;19920;-58
2022/12/01 10:10:38;;;;;;;;;;;;;;;6.93;93.51;102801.50;5084926;28;20349;-60
2022/12/01 10:13:15;;;;;;;;;;;;;;;6.97;93.76;102803.88;5081366;28;19931;-58
2022/12/01 10:15:44;;;;;;;;;;;;;;;6.99;93.46;102802.00;5084705;28;19923;-60
2022/12/01 10:18:29;;;;;;;;;;;;;;;7.02;93.32;102801.78;5084401;28;19912;-59
2022/12/01 10:21:06;;;;;;;;;;;;;;;7.05;93.29;102796.31;5084900;28;19984;-58
2022/12/01 10:24:00;;;;;;;;;;;;;;;7.08;93.31;102806.66;5085719;28;19916;-58
2022/12/01 10:26:44;;;;;;;;;;;;;;;7.10;93.12;102799.47;5070428;28;19952;-56
2022/12/01 10:29:33;;;;;;;;;;;;;;;7.06;92.96;102792.72;5082624;28;20276;-57
2022/12/01 10:32:24;;;;;;;;;;;;;;;7.05;93.20;102790.16;5075464;28;19920;-59
2022/12/01 10:34:50;;;;;;;;;;;;;;;7.01;92.91;102792.16;5060709;28;19919;-57
2022/12/01 10:37:23;;;;;;;;;;;;;;;6.99;92.82;102793.22;5085409;28;20387;-56
2022/12/01 10:39:49;;;;;;;;;;;;;;;6.94;92.42;102788.22;5084316;28;19998;-58
2022/12/01 10:42:24;;;;;;;;;;;;;;;6.88;92.49;102779.84;5088032;28;20309;-58
2022/12/01 10:44:49;;;;;;;;;;;;;;;6.87;92.61;102784.28;5086516;28;19916;-58
2022/12/01 10:47:17;;;;;;;;;;;;;;;6.88;92.54;102783.31;5086479;28;19927;-57
2022/12/01 10:49:42;;;;;;;;;;;;;;;6.87;92.37;102781.63;5082506;28;19916;-58
2022/12/01 10:52:25;;;;;;;;;;;;;;;6.87;92.47;102775.50;5085893;28;19947;-56
2022/12/01 10:54:50;;;;;;;;;;;;;;;6.91;92.61;102777.00;5080327;28;20007;-59
2022/12/01 10:57:16;;;;;;;;;;;;;;;6.95;92.42;102770.59;5088425;28;20054;-58
2022/12/01 11:00:17;;;;;;;;;;;;;;;7.00;92.54;102769.34;5073678;28;19973;-56
2022/12/01 11:02:42;;;;;;;;;;;;;;;7.09;92.91;102771.38;5041487;28;19917;-60
2022/12/01 11:05:19;;;;;;;;;;;;;;;7.16;92.26;102777.09;5075267;28;19923;-57
2022/12/01 11:07:45;;;;;;;;;;;;;;;7.25;92.38;102770.38;5078895;28;19924;-60
2022/12/01 11:10:37;;;;;;;;;;;;;;;7.34;92.21;102775.88;5082570;28;19916;-61
2022/12/01 11:13:02;;;;;;;;;;;;;;;7.43;91.95;102763.84;5077193;28;19928;-56
2022/12/01 11:15:29;;;;;;;;;;;;;;;7.47;91.33;102771.47;5083083;28;19931;-57
2022/12/01 11:17:59;;;;;;;;;;;;;;;7.53;91.14;102770.22;5079793;28;19969;-59
2022/12/01 11:20:35;;;;;;;;;;;;;;;7.57;90.95;102768.22;5080593;28;20375;-57
2022/12/01 11:23:23;;;;;;;;;;;;;;;7.60;91.04;102765.38;5080418;28;19946;-56
2022/12/01 11:25:54;;;;;;;;;;;;;;;7.60;90.68;102762.72;5080675;28;19916;-55
2022/12/01 11:28:19;;;;;;;;;;;;;;;7.56;90.64;102759.44;5086236;28;19920;-57
2022/12/01 11:30:44;;;;;;;;;;;;;;;7.53;90.26;102761.44;5078834;28;19916;-53
2022/12/01 11:33:13;;;;;;;;;;;;;;;7.48;90.16;102759.09;5084931;28;19923;-58
2022/12/01 11:35:45;;;;;;;;;;;;;;;7.43;89.56;102759.41;5082678;28;20276;-59
2022/12/01 11:38:18;;;;;;;;;;;;;;;7.38;89.58;102753.59;5084652;28;19970;-58
2022/12/01 11:40:45;;;;;;;;;;;;;;;7.34;89.65;102749.47;5081408;28;19921;-56
2022/12/01 11:43:18;;;;;;;;;;;;;;;7.32;89.44;102758.44;5087659;28;19922;-59
2022/12/01 11:45:43;;;;;;;;;;;;;;;7.30;89.31;102747.13;5082266;28;19916;-61
2022/12/01 11:48:11;;;;;;;;;;;;;;;7.30;89.71;102747.13;5086647;28;19923;-59
2022/12/01 11:50:37;;;;;;;;;;;;;;;7.33;90.16;102741.63;5081881;28;19927;-59
2022/12/01 11:53:03;;;;;;;;;;;;;;;7.36;90.03;102747.56;5081746;28;20497;-58
2022/12/01 11:55:29;;;;;;;;;;;;;;;7.41;89.91;102741.97;5080696;28;19920;-58
2022/12/01 11:57:58;;;;;;;;;;;;;;;7.44;89.86;102732.03;5082205;28;19962;-57
2022/12/01 12:00:25;;;;;;;;;;;;;;;7.48;90.03;102740.59;5076631;28;19920;-58
2022/12/01 12:03:04;;;;;;;;;;;;;;;7.53;89.62;102742.94;5081865;28;20252;-60
2022/12/01 12:05:33;;;;;;;;;;;;;;;7.54;89.62;102734.91;5080048;28;20387;-58
2022/12/01 12:07:58;;;;;;;;;;;;;;;7.57;89.33;102732.06;5086746;28;20369;-58
2022/12/01 12:10:32;;;;;;;;;;;;;;;7.61;89.43;102728.25;5077556;28;20417;-57
2022/12/01 12:13:15;;;;;;;;;;;;;;;7.65;88.76;102720.94;5078777;28;19959;-59
2022/12/01 12:15:49;;;;;;;;;;;;;;;7.66;88.55;102726.13;5084576;28;19966;-58
2022/12/01 12:18:15;;;;;;;;;;;;;;;7.70;88.05;102721.47;5077590;28;19927;-57
2022/12/01 12:20:49;;;;;;;;;;;;;;;7.68;87.67;102724.22;5075428;28;19924;-59
2022/12/01 12:23:15;;;;;;;;;;;;;;;7.69;87.80;102720.63;5077677;28;20001;-61
2022/12/01 12:25:46;;;;;;;;;;;;;;;7.72;88.13;102733.63;5082186;28;19916;-60
2022/12/01 12:28:30;;;;;;;;;;;;;;;7.72;88.28;102731.00;5073911;28;19916;-56
2022/12/01 12:31:05;;;;;;;;;;;;;;;7.73;87.99;102723.91;5080728;28;19916;-55
2022/12/01 12:33:38;;;;;;;;;;;;;;;7.75;88.37;102722.00;5082545;28;20407;-55
2022/12/01 12:36:10;;;;;;;;;;;;;;;7.74;88.11;102723.78;5080570;28;20294;-57
2022/12/01 12:38:54;;;;;;;;;;;;;;;7.73;88.18;102715.97;5086348;28;20441;-59
2022/12/01 12:41:22;;;;;;;;;;;;;;;7.73;88.25;102714.16;5080656;28;19971;-58
2022/12/01 12:43:59;;;;;;;;;;;;;;;7.72;87.94;102715.13;5087351;28;19966;-59
2022/12/01 12:46:24;;;;;;;;;;;;;;;7.71;87.80;102700.22;5081262;28;19924;-58
2022/12/01 12:49:08;;;;;;;;;;;;;;;7.67;87.39;102703.19;5082474;28;19979;-58
2022/12/01 12:51:35;;;;;;;;;;;;;;;7.65;87.18;102700.63;5084127;28;19916;-56
2022/12/01 12:54:24;;;;;;;;;;;;;;;7.63;87.20;102699.91;5082362;28;19922;-56
2022/12/01 12:56:51;;;;;;;;;;;;;;;7.59;86.92;102701.06;5085104;28;19920;-60